createdAt,value
2018-06-05T00:02:25.478Z,21.59
2018-06-05T00:04:53.905Z,21.60
2018-06-05T00:07:22.268Z,21.61
2018-06-05T00:09:50.614Z,21.57
2018-06-05T00:12:18.971Z,21.65
2018-06-05T00:14:47.327Z,21.70
2018-06-05T00:17:15.731Z,21.78
2018-06-05T00:19:44.065Z,21.67
2018-06-05T00:22:12.561Z,21.67
2018-06-05T00:24:41.052Z,21.58
2018-06-05T00:27:09.320Z,21.65
2018-06-05T00:29:37.754Z,21.54
2018-06-05T00:32:06.255Z,21.33
2018-06-05T00:34:34.569Z,21.49
2018-06-05T00:37:03.752Z,21.34
2018-06-05T00:39:32.371Z,21.31
2018-06-05T00:42:00.654Z,21.21
2018-06-05T00:44:28.981Z,21.20
2018-06-05T00:46:57.270Z,21.31
2018-06-05T00:49:25.553Z,21.35
2018-06-05T00:52:05.177Z,21.31
2018-06-05T00:54:33.500Z,21.30
2018-06-05T00:57:01.899Z,21.34
2018-06-05T00:59:30.377Z,21.40
2018-06-05T01:01:58.671Z,21.19
2018-06-05T01:04:27.072Z,21.18
2018-06-05T01:06:55.455Z,21.03
2018-06-05T01:09:24.411Z,21.08
2018-06-05T01:11:52.788Z,21.06
2018-06-05T01:14:21.031Z,21.07
2018-06-05T01:16:49.488Z,21.06
2018-06-05T01:19:17.863Z,20.90
2018-06-05T01:21:46.403Z,20.86
2018-06-05T01:24:14.925Z,20.72
2018-06-05T01:26:43.574Z,20.71
2018-06-05T01:29:12.045Z,20.83
2018-06-05T01:31:40.434Z,20.72
2018-06-05T01:34:08.775Z,20.70
2018-06-05T01:36:37.179Z,20.56
2018-06-05T01:39:08.968Z,20.37
2018-06-05T01:41:38.214Z,20.24
2018-06-05T01:44:06.560Z,20.40
2018-06-05T01:46:34.944Z,20.44
2018-06-05T01:49:03.323Z,20.47
2018-06-05T01:51:31.784Z,20.30
2018-06-05T01:54:00.146Z,20.14
2018-06-05T01:56:28.523Z,20.24
2018-06-05T01:58:56.917Z,20.15
2018-06-05T02:01:25.626Z,20.19
2018-06-05T02:03:53.983Z,20.04
2018-06-05T02:06:22.351Z,19.97
2018-06-05T02:08:50.692Z,20.08
2018-06-05T02:11:19.059Z,20.05
2018-06-05T02:13:47.392Z,20.06
2018-06-05T02:16:15.703Z,20.03
2018-06-05T02:18:44.175Z,19.98
2018-06-05T02:21:12.631Z,19.97
2018-06-05T02:23:41.085Z,19.99
2018-06-05T02:26:09.838Z,19.84
2018-06-05T02:28:39.095Z,19.90
2018-06-05T02:31:07.375Z,19.97
2018-06-05T02:33:35.929Z,20.06
2018-06-05T02:36:05.142Z,20.20
2018-06-05T02:38:33.458Z,20.32
2018-06-05T02:41:01.788Z,20.33
2018-06-05T02:43:30.091Z,20.24
2018-06-05T02:45:58.454Z,20.21
2018-06-05T02:48:26.777Z,20.24
2018-06-05T02:50:55.094Z,20.11
2018-06-05T02:53:23.410Z,19.99
2018-06-05T02:55:51.841Z,19.93
2018-06-05T02:58:20.230Z,19.88
2018-06-05T03:00:48.573Z,19.90
2018-06-05T03:03:16.888Z,19.94
2018-06-05T03:05:45.137Z,20.10
2018-06-05T03:08:13.495Z,20.24
2018-06-05T03:10:41.843Z,20.43
2018-06-05T03:13:10.735Z,20.30
2018-06-05T03:15:39.068Z,19.99
2018-06-05T03:18:07.428Z,19.81
2018-06-05T03:20:35.816Z,19.81
2018-06-05T03:23:04.105Z,19.91
2018-06-05T03:25:37.749Z,19.88
2018-06-05T03:28:06.498Z,19.83
2018-06-05T03:30:35.058Z,19.86
2018-06-05T03:33:03.379Z,19.82
2018-06-05T03:35:31.675Z,19.71
2018-06-05T03:38:00.108Z,19.92
2018-06-05T03:40:28.387Z,20.05
2018-06-05T03:42:56.747Z,20.04
2018-06-05T03:45:25.113Z,20.01
2018-06-05T03:47:53.424Z,20.24
2018-06-05T03:50:21.802Z,20.30
2018-06-05T03:52:50.165Z,20.49
2018-06-05T03:55:18.533Z,20.60
2018-06-05T03:57:47.295Z,20.73
2018-06-05T04:00:15.629Z,21.19
2018-06-05T04:02:44.034Z,21.77
2018-06-05T04:05:12.463Z,22.32
2018-06-05T04:07:40.792Z,22.59
2018-06-05T04:10:09.328Z,22.80
2018-06-05T04:12:37.858Z,23.24
2018-06-05T04:15:06.225Z,23.45
2018-06-05T04:17:34.764Z,23.33
2018-06-05T04:20:03.025Z,23.50
2018-06-05T04:22:31.307Z,23.85
2018-06-05T04:24:59.784Z,23.97
2018-06-05T04:27:28.608Z,24.09
2018-06-05T04:29:56.953Z,24.23
2018-06-05T04:32:25.319Z,24.15
2018-06-05T04:34:53.732Z,24.19
2018-06-05T04:37:22.097Z,24.57
2018-06-05T04:39:50.494Z,24.43
2018-06-05T04:42:18.804Z,24.68
2018-06-05T04:44:47.179Z,24.97
2018-06-05T04:47:15.497Z,24.79
2018-06-05T04:49:43.956Z,24.97
2018-06-05T04:52:12.242Z,24.67
2018-06-05T04:54:40.564Z,24.28
2018-06-05T04:57:08.910Z,24.63
2018-06-05T04:59:37.236Z,24.74
2018-06-05T05:02:05.735Z,24.52
2018-06-05T05:04:34.158Z,24.84
2018-06-05T05:07:02.706Z,25.18
2018-06-05T05:09:31.416Z,25.19
2018-06-05T05:12:00.037Z,25.31
2018-06-05T05:14:28.643Z,25.28
2018-06-05T05:16:57.045Z,25.80
2018-06-05T05:19:25.500Z,26.09
2018-06-05T05:21:53.970Z,26.21
2018-06-05T05:24:22.495Z,25.96
2018-06-05T05:26:50.833Z,26.02
2018-06-05T05:29:19.182Z,26.41
2018-06-05T05:31:47.579Z,26.47
2018-06-05T05:34:16.034Z,26.38
2018-06-05T05:36:44.864Z,26.38
2018-06-05T05:39:13.358Z,26.12
2018-06-05T05:41:41.737Z,26.50
2018-06-05T05:44:10.112Z,26.38
2018-06-05T05:46:38.461Z,26.46
2018-06-05T05:49:06.794Z,26.11
2018-06-05T05:51:35.131Z,26.09
2018-06-05T05:54:03.447Z,26.18
2018-06-05T05:56:31.822Z,26.31
2018-06-05T05:59:00.939Z,26.01
2018-06-05T06:01:29.289Z,25.94
2018-06-05T06:03:58.250Z,25.71
2018-06-05T06:06:26.595Z,25.37
2018-06-05T06:08:54.944Z,24.91
2018-06-05T06:11:23.261Z,24.65
2018-06-05T06:13:51.624Z,24.58
2018-06-05T06:16:20.029Z,24.68
2018-06-05T06:18:48.450Z,24.61
2018-06-05T06:21:17.331Z,24.58
2018-06-05T06:23:45.672Z,25.13
2018-06-05T06:26:13.988Z,24.93
2018-06-05T06:28:42.443Z,25.02
2018-06-05T06:31:10.841Z,25.15
2018-06-05T06:33:39.507Z,25.30
2018-06-05T06:36:07.915Z,25.12
2018-06-05T06:38:36.445Z,25.14
2018-06-05T06:41:05.118Z,25.10
2018-06-05T06:43:33.629Z,24.72
2018-06-05T06:46:01.996Z,25.01
2018-06-05T06:48:30.419Z,25.23
2018-06-05T06:50:58.773Z,25.47
2018-06-05T06:53:28.015Z,25.53
2018-06-05T06:55:56.303Z,25.74
2018-06-05T06:58:24.653Z,25.90
2018-06-05T07:00:53.036Z,26.09
2018-06-05T07:03:21.449Z,26.14
2018-06-05T07:05:49.870Z,26.23
2018-06-05T07:08:18.313Z,26.21
2018-06-05T07:10:46.971Z,26.30
2018-06-05T07:13:15.290Z,26.09
2018-06-05T07:15:43.570Z,26.23
2018-06-05T07:18:11.904Z,26.39
2018-06-05T07:20:40.329Z,26.56
2018-06-05T07:23:09.010Z,26.70
2018-06-05T07:25:37.426Z,26.85
2018-06-05T07:28:05.795Z,27.08
2018-06-05T07:30:34.077Z,27.23
2018-06-05T07:33:02.522Z,27.51
2018-06-05T07:35:30.913Z,27.75
2018-06-05T07:37:59.312Z,27.95
2018-06-05T07:40:27.642Z,27.99
2018-06-05T07:42:55.983Z,28.14
2018-06-05T07:45:24.364Z,28.24
2018-06-05T07:47:52.663Z,28.32
2018-06-05T07:50:21.343Z,28.46
2018-06-05T07:52:49.586Z,28.38
2018-06-05T07:55:17.943Z,28.35
2018-06-05T07:57:46.217Z,28.42
2018-06-05T08:00:14.642Z,28.64
2018-06-05T08:02:42.998Z,28.57
2018-06-05T08:05:11.357Z,28.70
2018-06-05T08:07:39.661Z,28.45
2018-06-05T08:10:07.969Z,28.56
2018-06-05T08:12:36.487Z,28.48
2018-06-05T08:15:05.094Z,28.49
2018-06-05T08:17:33.457Z,28.74
2018-06-05T08:20:01.724Z,28.73
2018-06-05T08:23:06.669Z,28.49
2018-06-05T08:25:34.983Z,28.26
2018-06-05T08:28:03.331Z,28.55
2018-06-05T08:30:31.597Z,28.68
2018-06-05T08:32:59.993Z,28.86
2018-06-05T08:35:28.301Z,28.97
2018-06-05T08:37:56.695Z,28.95
2018-06-05T08:40:25.030Z,29.08
2018-06-05T08:42:53.447Z,29.15
2018-06-05T08:45:21.864Z,29.07
2018-06-05T08:47:50.184Z,28.85
2018-06-05T08:50:18.472Z,28.87
2018-06-05T08:52:47.674Z,29.13
2018-06-05T08:55:16.032Z,28.72
2018-06-05T08:57:44.416Z,28.79
2018-06-05T09:00:12.757Z,29.13
2018-06-05T09:02:41.127Z,29.45
2018-06-05T09:05:09.602Z,29.68
2018-06-05T09:07:37.895Z,29.62
2018-06-05T09:10:06.347Z,29.85
2018-06-05T09:12:34.606Z,29.61
2018-06-05T09:15:02.935Z,29.86
2018-06-05T09:17:31.309Z,29.79
2018-06-05T09:19:59.637Z,30.03
2018-06-05T09:22:27.982Z,30.06
2018-06-05T09:24:56.234Z,30.13
2018-06-05T09:27:24.589Z,30.03
2018-06-05T09:29:52.873Z,30.05
2018-06-05T09:32:21.165Z,29.91
2018-06-05T09:34:49.401Z,30.07
2018-06-05T09:37:17.752Z,30.24
2018-06-05T09:39:46.068Z,30.56
2018-06-05T09:42:14.365Z,30.61
2018-06-05T09:44:42.684Z,30.64
2018-06-05T09:47:10.917Z,30.58
2018-06-05T09:49:39.243Z,30.86
2018-06-05T09:52:07.612Z,30.82
2018-06-05T09:54:36.005Z,30.82
2018-06-05T09:57:04.387Z,30.89
2018-06-05T09:59:32.731Z,30.95
2018-06-05T10:02:01.004Z,30.56
2018-06-05T10:04:29.397Z,30.79
2018-06-05T10:06:57.764Z,30.96
2018-06-05T10:09:26.062Z,31.15
2018-06-05T10:11:54.351Z,31.06
2018-06-05T10:14:22.753Z,31.20
2018-06-05T10:16:51.135Z,31.26
2018-06-05T10:19:19.579Z,31.47
2018-06-05T10:21:47.918Z,31.60
2018-06-05T10:24:16.208Z,31.61
2018-06-05T10:26:44.597Z,31.53
2018-06-05T10:29:12.945Z,31.77
2018-06-05T10:31:41.444Z,31.45
2018-06-05T10:34:09.606Z,31.16
2018-06-05T10:36:37.965Z,31.25
2018-06-05T10:39:07.812Z,31.27
2018-06-05T10:41:36.176Z,31.44
2018-06-05T10:44:04.497Z,31.62
2018-06-05T10:46:33.027Z,31.89
2018-06-05T10:49:01.328Z,31.95
2018-06-05T10:51:29.831Z,32.04
2018-06-05T10:53:58.368Z,32.09
2018-06-05T10:56:26.692Z,32.27
2018-06-05T10:58:55.299Z,32.44
2018-06-05T11:01:23.610Z,32.85
2018-06-05T11:03:52.066Z,33.10
2018-06-05T11:06:20.708Z,33.41
2018-06-05T11:08:49.064Z,33.33
2018-06-05T11:11:18.045Z,33.00
2018-06-05T11:13:46.425Z,33.25
2018-06-05T11:16:14.803Z,33.36
2018-06-05T11:18:43.326Z,33.02
2018-06-05T11:21:11.607Z,33.03
2018-06-05T11:23:40.328Z,33.04
2018-06-05T11:26:08.596Z,33.21
2018-06-05T11:28:37.036Z,33.19
2018-06-05T11:31:05.371Z,33.21
2018-06-05T11:33:33.662Z,33.60
2018-06-05T11:36:01.992Z,34.24
2018-06-05T11:38:30.286Z,34.41
2018-06-05T11:40:58.644Z,34.73
2018-06-05T11:43:26.981Z,34.96
2018-06-05T11:45:55.298Z,35.44
2018-06-05T11:48:23.627Z,35.42
2018-06-05T11:50:52.103Z,34.58
2018-06-05T11:53:20.426Z,34.82
2018-06-05T11:55:48.894Z,34.70
2018-06-05T11:58:18.098Z,34.76
2018-06-05T12:00:47.455Z,34.69
2018-06-05T12:03:15.756Z,35.46
2018-06-05T12:05:44.060Z,36.04
2018-06-05T12:08:12.376Z,37.33
2018-06-05T12:10:40.657Z,38.59
2018-06-05T12:13:08.965Z,38.96
2018-06-05T12:15:37.331Z,40.35
2018-06-05T12:18:05.772Z,41.66
2018-06-05T12:20:34.063Z,42.50
2018-06-05T12:23:02.386Z,40.47
2018-06-05T12:25:30.737Z,40.40
2018-06-05T12:27:59.035Z,39.86
2018-06-05T12:30:27.366Z,40.92
2018-06-05T12:32:56.173Z,41.53
2018-06-05T12:35:24.674Z,40.69
2018-06-05T12:37:53.092Z,39.63
2018-06-05T12:40:21.483Z,38.83
2018-06-05T12:42:49.813Z,37.98
2018-06-05T12:45:18.140Z,37.19
2018-06-05T12:47:46.726Z,36.87
2018-06-05T12:50:15.044Z,36.41
2018-06-05T12:52:43.401Z,37.43
2018-06-05T12:55:11.703Z,37.92
2018-06-05T12:57:40.047Z,39.59
2018-06-05T13:00:08.417Z,40.88
2018-06-05T13:02:36.785Z,41.03
2018-06-05T13:05:05.278Z,42.42
2018-06-05T13:07:33.705Z,43.86
2018-06-05T13:10:02.037Z,44.73
2018-06-05T13:12:30.409Z,45.61
2018-06-05T13:14:58.842Z,46.84
2018-06-05T13:17:27.275Z,46.61
2018-06-05T13:19:55.889Z,47.49
2018-06-05T13:22:24.417Z,48.30
2018-06-05T13:24:52.795Z,47.67
2018-06-05T13:27:21.278Z,45.99
2018-06-05T13:29:49.793Z,47.08
2018-06-05T13:32:18.344Z,48.11
2018-06-05T13:34:46.769Z,46.75
2018-06-05T13:37:15.129Z,44.60
2018-06-05T13:39:43.550Z,43.45
2018-06-05T13:42:11.977Z,41.94
2018-06-05T13:44:40.839Z,41.09
2018-06-05T13:47:09.217Z,40.29
2018-06-05T13:49:37.616Z,41.51
2018-06-05T13:52:05.964Z,43.42
2018-06-05T13:54:34.212Z,44.81
2018-06-05T13:57:02.652Z,43.01
2018-06-05T13:59:30.988Z,41.99
2018-06-05T14:01:59.602Z,40.56
2018-06-05T14:04:28.043Z,39.36
2018-06-05T14:06:56.325Z,38.10
2018-06-05T14:09:24.741Z,37.42
2018-06-05T14:11:53.038Z,36.90
2018-06-05T14:14:21.453Z,36.56
2018-06-05T14:16:49.841Z,36.25
2018-06-05T14:19:18.267Z,35.97
2018-06-05T14:21:46.541Z,35.67
2018-06-05T14:24:14.908Z,35.56
2018-06-05T14:26:43.236Z,35.06
2018-06-05T14:29:11.535Z,34.90
2018-06-05T14:31:40.164Z,34.77
2018-06-05T14:34:08.500Z,35.85
2018-06-05T14:36:36.825Z,38.41
2018-06-05T14:39:08.017Z,38.82
2018-06-05T14:41:36.545Z,38.39
2018-06-05T14:44:04.875Z,38.32
2018-06-05T14:46:33.213Z,40.48
2018-06-05T14:49:01.515Z,42.56
2018-06-05T14:51:29.854Z,44.36
2018-06-05T14:53:58.207Z,43.59
2018-06-05T14:56:26.531Z,41.93
2018-06-05T14:58:54.846Z,40.48
2018-06-05T15:01:23.181Z,39.07
2018-06-05T15:03:51.599Z,38.19
2018-06-05T15:06:19.993Z,37.79
2018-06-05T15:08:48.309Z,37.38
2018-06-05T15:11:16.728Z,39.32
2018-06-05T15:13:44.986Z,41.23
2018-06-05T15:16:13.306Z,41.93
2018-06-05T15:18:41.605Z,41.51
2018-06-05T15:21:09.927Z,41.40
2018-06-05T15:23:38.209Z,40.71
2018-06-05T15:26:06.602Z,39.87
2018-06-05T15:28:35.032Z,39.74
2018-06-05T15:31:03.417Z,40.18
2018-06-05T15:33:31.873Z,39.63
2018-06-05T15:36:00.252Z,38.07
2018-06-05T15:38:28.541Z,37.05
2018-06-05T15:40:56.871Z,35.92
2018-06-05T15:43:25.229Z,35.09
2018-06-05T15:45:53.720Z,34.27
2018-06-05T15:48:22.095Z,33.71
2018-06-05T15:50:50.392Z,33.25
2018-06-05T15:53:18.735Z,32.75
2018-06-05T15:55:47.045Z,32.48
2018-06-05T15:58:15.370Z,32.27
2018-06-05T16:00:43.652Z,32.00
2018-06-05T16:03:11.949Z,31.81
2018-06-05T16:05:40.385Z,31.70
2018-06-05T16:08:08.774Z,31.44
2018-06-05T16:10:37.304Z,31.47
2018-06-05T16:13:05.612Z,31.32
2018-06-05T16:15:34.796Z,31.31
2018-06-05T16:18:03.136Z,31.09
2018-06-05T16:20:31.854Z,30.89
2018-06-05T16:23:00.194Z,30.77
2018-06-05T16:25:29.124Z,30.74
2018-06-05T16:27:57.607Z,30.79
2018-06-05T16:30:26.150Z,30.78
2018-06-05T16:32:54.481Z,30.90
2018-06-05T16:35:23.037Z,30.91
2018-06-05T16:37:51.362Z,31.01
2018-06-05T16:40:19.733Z,31.13
2018-06-05T16:42:48.027Z,31.17
2018-06-05T16:45:16.294Z,31.16
2018-06-05T16:47:44.608Z,31.07
2018-06-05T16:50:12.997Z,31.13
2018-06-05T16:52:41.368Z,31.28
2018-06-05T16:55:09.757Z,31.45
2018-06-05T16:57:38.123Z,31.47
2018-06-05T17:00:06.541Z,31.39
2018-06-05T17:02:34.859Z,31.19
2018-06-05T17:05:03.125Z,30.97
2018-06-05T17:07:31.444Z,30.75
2018-06-05T17:10:00.426Z,30.55
2018-06-05T17:12:28.710Z,30.38
2018-06-05T17:14:57.992Z,30.33
2018-06-05T17:17:26.544Z,30.25
2018-06-05T17:19:54.992Z,30.25
2018-06-05T17:22:23.413Z,30.15
2018-06-05T17:24:51.899Z,29.94
2018-06-05T17:27:20.376Z,29.95
2018-06-05T17:29:49.449Z,30.11
2018-06-05T17:32:17.812Z,30.25
2018-06-05T17:34:46.379Z,30.23
2018-06-05T17:37:14.716Z,30.38
2018-06-05T17:39:43.329Z,30.40
2018-06-05T17:42:11.848Z,30.38
2018-06-05T17:44:40.369Z,30.30
2018-06-05T17:47:08.644Z,30.37
2018-06-05T17:49:37.079Z,30.60
2018-06-05T17:52:05.650Z,31.22
2018-06-05T17:54:33.985Z,31.88
2018-06-05T17:57:02.633Z,32.40
2018-06-05T17:59:31.083Z,32.53
2018-06-05T18:01:59.436Z,32.81
2018-06-05T18:04:27.783Z,32.71
2018-06-05T18:06:56.175Z,32.36
2018-06-05T18:09:24.638Z,31.89
2018-06-05T18:11:53.185Z,31.57
2018-06-05T18:14:21.552Z,31.44
2018-06-05T18:16:50.082Z,31.16
2018-06-05T18:19:18.521Z,30.87
2018-06-05T18:21:46.925Z,30.71
2018-06-05T18:24:15.239Z,30.54
2018-06-05T18:26:43.700Z,30.05
2018-06-05T18:29:12.114Z,29.96
2018-06-05T18:31:40.665Z,29.93
2018-06-05T18:34:09.178Z,29.65
2018-06-05T18:36:37.611Z,29.56
2018-06-05T18:39:08.247Z,29.43
2018-06-05T18:41:36.526Z,29.36
2018-06-05T18:44:05.146Z,29.17
2018-06-05T18:46:33.536Z,29.18
2018-06-05T18:49:01.984Z,29.13
2018-06-05T18:51:30.391Z,28.91
2018-06-05T18:53:58.729Z,28.87
2018-06-05T18:56:27.258Z,28.80
2018-06-05T18:58:55.641Z,28.62
2018-06-05T19:01:24.137Z,28.45
2018-06-05T19:03:52.516Z,28.37
2018-06-05T19:06:21.044Z,28.27
2018-06-05T19:08:49.417Z,28.03
2018-06-05T19:11:18.006Z,27.86
2018-06-05T19:13:46.719Z,27.72
2018-06-05T19:16:15.183Z,27.61
2018-06-05T19:18:43.782Z,27.44
2018-06-05T19:21:12.263Z,27.24
2018-06-05T19:29:41.599Z,26.88
2018-06-05T19:32:10.840Z,26.89
2018-06-05T19:34:40.179Z,26.72
2018-06-05T19:37:09.180Z,26.72
2018-06-05T19:39:38.693Z,26.55
2018-06-05T19:42:07.751Z,26.57
2018-06-05T19:44:37.734Z,26.53
2018-06-05T19:47:08.810Z,26.48
2018-06-05T19:49:38.160Z,26.35
2018-06-05T19:52:08.084Z,26.30
2018-06-05T19:54:37.099Z,26.32
2018-06-05T19:57:06.207Z,26.31
2018-06-05T19:59:36.032Z,26.31
2018-06-05T20:02:05.278Z,26.33
2018-06-05T20:04:34.344Z,26.31
2018-06-05T20:07:03.482Z,26.22
2018-06-05T20:09:32.115Z,26.23
2018-06-05T20:12:01.204Z,26.06
2018-06-05T20:14:31.439Z,26.02
2018-06-05T20:17:00.983Z,25.80
2018-06-05T20:19:29.991Z,25.84
2018-06-05T20:22:01.393Z,25.86
2018-06-05T20:24:30.464Z,25.69
2018-06-05T20:26:59.450Z,25.70
2018-06-05T20:29:29.493Z,25.56
2018-06-05T20:31:58.922Z,25.55
2018-06-05T20:34:28.887Z,25.15
2018-06-05T20:36:58.314Z,24.69
2018-06-05T20:39:27.935Z,24.47
2018-06-05T20:41:56.911Z,24.23
2018-06-05T20:44:25.793Z,23.99
2018-06-05T20:46:58.893Z,23.80
2018-06-05T20:49:28.135Z,23.59
2018-06-05T20:51:56.963Z,23.42
2018-06-05T20:54:26.640Z,23.30
2018-06-05T20:56:55.561Z,23.15
2018-06-05T20:59:25.256Z,23.04
2018-06-05T21:01:54.810Z,22.95
2018-06-05T21:04:23.834Z,22.91
2018-06-05T21:06:52.852Z,22.83
2018-06-05T21:09:21.824Z,22.78
2018-06-05T21:11:51.343Z,22.73
2018-06-05T21:14:20.323Z,22.74
2018-06-05T21:16:50.273Z,22.78
2018-06-05T21:19:19.159Z,22.76
2018-06-05T21:21:49.544Z,22.74
2018-06-05T21:24:18.294Z,22.76
2018-06-05T21:26:47.834Z,22.68
2018-06-05T21:29:16.682Z,22.88
2018-06-05T21:31:46.440Z,23.13
2018-06-05T21:34:16.025Z,23.49
2018-06-05T21:36:45.464Z,23.70
2018-06-05T21:39:14.570Z,23.74
2018-06-05T21:41:43.873Z,23.55
2018-06-05T21:44:12.685Z,23.57
2018-06-05T21:46:42.376Z,23.50
2018-06-05T21:49:11.455Z,23.34
2018-06-05T21:51:40.362Z,23.27
2018-06-05T21:54:09.860Z,23.10
2018-06-05T21:56:38.835Z,22.88
2018-06-05T21:59:07.544Z,23.06
2018-06-05T22:01:36.469Z,22.98
2018-06-05T22:04:05.206Z,22.83
2018-06-05T22:06:36.396Z,22.60
2018-06-05T22:09:11.523Z,22.46
2018-06-05T22:11:43.966Z,22.33
2018-06-05T22:14:22.684Z,22.29
2018-06-05T22:16:52.029Z,22.29
2018-06-05T22:19:21.716Z,22.28
2018-06-05T22:21:50.898Z,22.41
2018-06-05T22:24:20.896Z,22.41
2018-06-05T22:26:55.265Z,22.37
2018-06-05T22:29:26.771Z,22.41
2018-06-05T22:31:57.227Z,22.39
2018-06-05T22:34:27.477Z,22.57
2018-06-05T22:36:58.043Z,22.61
2018-06-05T22:39:27.834Z,22.63
2018-06-05T22:42:15.115Z,22.54
2018-06-05T22:44:53.101Z,22.66
2018-06-05T22:47:31.104Z,22.78
2018-06-05T22:50:06.602Z,22.79
2018-06-05T22:52:40.249Z,22.71
2018-06-05T22:55:33.200Z,22.69
2018-06-05T22:58:12.507Z,22.68
2018-06-05T23:00:49.917Z,22.62
2018-06-05T23:03:28.037Z,22.40
2018-06-05T23:06:02.867Z,22.27
2018-06-05T23:08:38.244Z,22.10
2018-06-05T23:11:16.309Z,22.02
2018-06-05T23:13:49.871Z,22.36
2018-06-05T23:16:22.958Z,22.84
2018-06-05T23:18:56.658Z,22.82
2018-06-05T23:21:34.513Z,22.67
2018-06-05T23:24:09.381Z,22.50
2018-06-05T23:26:51.956Z,22.50
2018-06-05T23:29:28.117Z,22.46
2018-06-05T23:32:05.667Z,22.35
2018-06-05T23:37:24.866Z,22.19
2018-06-05T23:40:00.011Z,22.05
2018-06-05T23:42:36.220Z,21.99
2018-06-05T23:45:12.107Z,21.88
2018-06-05T23:47:45.607Z,21.81
2018-06-05T23:50:17.817Z,21.77
2018-06-05T23:52:53.503Z,21.77
2018-06-05T23:55:30.877Z,21.77
2018-06-05T23:58:05.365Z,21.70
